createdAt,value
2023-10-26T00:00:34.937Z,99702.25
2023-10-26T00:03:01.791Z,99707.41
2023-10-26T00:05:28.436Z,99707.41
2023-10-26T00:07:54.874Z,99713.47
2023-10-26T00:10:21.296Z,99717.78
2023-10-26T00:12:47.738Z,99716.09
2023-10-26T00:15:14.151Z,99714.44
2023-10-26T00:17:40.713Z,99717.16
2023-10-26T00:20:08.228Z,99714.56
2023-10-26T00:22:34.703Z,99709.31
2023-10-26T00:25:01.097Z,99712.63
2023-10-26T00:27:28.009Z,99703.22
2023-10-26T00:29:54.422Z,99711.81
2023-10-26T00:32:20.884Z,99710.97
2023-10-26T00:34:47.369Z,99708.34
2023-10-26T00:37:13.726Z,99718.00
2023-10-26T00:39:40.168Z,99723.38
2023-10-26T00:42:06.598Z,99722.53
2023-10-26T00:44:33.077Z,99726.84
2023-10-26T00:46:59.885Z,99724.09
2023-10-26T00:49:26.470Z,99725.03
2023-10-26T00:51:58.160Z,99731.25
2023-10-26T00:54:25.728Z,99733.03
2023-10-26T00:56:52.492Z,99740.91
2023-10-26T00:59:19.458Z,99736.69
2023-10-26T01:01:47.150Z,99741.13
2023-10-26T01:04:17.402Z,99741.22
2023-10-26T01:06:45.444Z,99749.00
2023-10-26T01:09:12.394Z,99751.59
2023-10-26T01:11:40.349Z,99755.06
2023-10-26T01:14:08.177Z,99749.09
2023-10-26T01:16:35.921Z,99756.13
2023-10-26T01:19:04.625Z,99755.19
2023-10-26T01:21:51.000Z,99752.56
2023-10-26T01:24:18.182Z,99757.81
2023-10-26T01:26:44.990Z,99770.09
2023-10-26T01:29:11.448Z,99774.50
2023-10-26T01:31:38.085Z,99771.88
2023-10-26T01:34:05.653Z,99767.47
2023-10-26T01:36:32.543Z,99774.50
2023-10-26T01:39:01.370Z,99777.97
2023-10-26T01:41:32.756Z,99772.72
2023-10-26T01:44:01.247Z,99772.72
2023-10-26T01:46:27.775Z,99764.84
2023-10-26T01:48:54.535Z,99757.81
2023-10-26T01:51:21.083Z,99760.31
2023-10-26T01:53:47.595Z,99764.72
2023-10-26T01:56:14.090Z,99763.06
2023-10-26T01:58:40.525Z,99759.59
2023-10-26T02:01:06.920Z,99765.56
2023-10-26T02:03:33.376Z,99760.44
2023-10-26T02:05:59.933Z,99766.53
2023-10-26T02:08:26.469Z,99757.69
2023-10-26T02:10:52.913Z,99759.28
2023-10-26T02:13:19.413Z,99749.63
2023-10-26T02:15:45.784Z,99752.00
2023-10-26T02:18:12.189Z,99758.22
2023-10-26T02:20:38.645Z,99757.25
2023-10-26T02:23:06.048Z,99753.69
2023-10-26T02:25:32.734Z,99751.06
2023-10-26T02:27:59.194Z,99745.91
2023-10-26T02:30:25.727Z,99753.91
2023-10-26T02:32:52.242Z,99759.28
2023-10-26T02:35:21.831Z,99757.59
2023-10-26T02:37:49.216Z,99759.41
2023-10-26T02:40:15.631Z,99754.97
2023-10-26T02:42:42.104Z,99755.81
2023-10-26T02:45:09.737Z,99760.94
2023-10-26T02:47:38.639Z,99755.47
2023-10-26T02:50:06.873Z,99763.22
2023-10-26T02:52:33.301Z,99771.94
2023-10-26T02:54:59.677Z,99768.59
2023-10-26T02:57:26.184Z,99769.53
2023-10-26T02:59:52.682Z,99765.00
2023-10-26T03:02:19.212Z,99761.44
2023-10-26T03:04:45.643Z,99757.88
2023-10-26T03:07:12.491Z,99755.97
2023-10-26T03:09:39.041Z,99749.06
2023-10-26T03:12:05.901Z,99753.34
2023-10-26T03:14:32.917Z,99746.44
2023-10-26T03:16:59.349Z,99745.59
2023-10-26T03:19:25.884Z,99731.72
2023-10-26T03:21:52.376Z,99732.34
2023-10-26T03:24:18.753Z,99736.78
2023-10-26T03:26:45.236Z,99739.28
2023-10-26T03:29:11.747Z,99745.47
2023-10-26T03:31:39.154Z,99741.19
2023-10-26T03:34:05.624Z,99743.81
2023-10-26T03:36:32.805Z,99745.47
2023-10-26T03:38:59.821Z,99744.66
2023-10-26T03:41:26.245Z,99741.91
2023-10-26T03:43:52.743Z,99733.19
2023-10-26T03:46:19.342Z,99730.56
2023-10-26T03:48:45.723Z,99734.97
2023-10-26T03:51:12.208Z,99742.03
2023-10-26T03:53:38.768Z,99736.78
2023-10-26T03:56:05.755Z,99748.31
2023-10-26T03:58:32.430Z,99742.22
2023-10-26T04:00:59.348Z,99742.22
2023-10-26T04:03:26.242Z,99734.34
2023-10-26T04:05:53.919Z,99736.97
2023-10-26T04:08:20.376Z,99743.91
2023-10-26T04:10:46.813Z,99744.97
2023-10-26T04:13:13.257Z,99750.84
2023-10-26T04:15:39.675Z,99750.84
2023-10-26T04:18:09.527Z,99749.06
2023-10-26T04:20:36.132Z,99745.69
2023-10-26T04:23:02.711Z,99743.19
2023-10-26T04:25:42.394Z,99744.13
2023-10-26T04:28:18.470Z,99747.59
2023-10-26T04:30:48.663Z,99742.69
2023-10-26T04:33:18.611Z,99734.72
2023-10-26T04:35:46.535Z,99731.25
2023-10-26T04:38:13.002Z,99729.47
2023-10-26T04:40:40.687Z,99725.88
2023-10-26T04:43:07.716Z,99724.22
2023-10-26T04:45:34.552Z,99723.56
2023-10-26T04:48:02.240Z,99720.25
2023-10-26T04:50:31.116Z,99715.09
2023-10-26T04:52:59.326Z,99717.84
2023-10-26T04:55:31.289Z,99715.34
2023-10-26T04:57:57.921Z,99709.59
2023-10-26T05:00:24.526Z,99715.66
2023-10-26T05:02:50.903Z,99719.97
2023-10-26T05:05:17.330Z,99718.19
2023-10-26T05:07:43.890Z,99714.50
2023-10-26T05:10:10.419Z,99717.22
2023-10-26T05:12:36.940Z,99726.88
2023-10-26T05:15:05.169Z,99728.06
2023-10-26T05:17:32.597Z,99724.63
2023-10-26T05:19:59.042Z,99725.31
2023-10-26T05:22:25.521Z,99726.03
2023-10-26T05:24:51.937Z,99719.97
2023-10-26T05:27:19.891Z,99722.38
2023-10-26T05:29:46.304Z,99725.00
2023-10-26T05:32:12.685Z,99716.31
2023-10-26T05:34:39.112Z,99710.31
2023-10-26T05:37:05.501Z,99712.22
2023-10-26T05:39:33.229Z,99713.88
2023-10-26T05:41:59.964Z,99704.09
2023-10-26T05:44:26.445Z,99708.44
2023-10-26T05:46:53.069Z,99705.56
2023-10-26T05:49:19.448Z,99702.00
2023-10-26T05:51:45.836Z,99700.19
2023-10-26T05:54:12.346Z,99691.38
2023-10-26T05:56:38.844Z,99688.88
2023-10-26T05:59:06.076Z,99691.72
2023-10-26T06:01:33.129Z,99693.41
2023-10-26T06:03:59.819Z,99688.28
2023-10-26T06:06:26.315Z,99683.84
2023-10-26T06:08:55.490Z,99687.53
2023-10-26T06:11:21.940Z,99692.78
2023-10-26T06:13:49.606Z,99698.97
2023-10-26T06:16:17.248Z,99698.38
2023-10-26T06:18:44.029Z,99707.19
2023-10-26T06:21:10.628Z,99705.84
2023-10-26T06:23:37.156Z,99708.72
2023-10-26T06:26:04.747Z,99703.47
2023-10-26T06:28:31.548Z,99703.47
2023-10-26T06:31:09.444Z,99712.38
2023-10-26T06:33:36.086Z,99713.13
2023-10-26T06:36:03.889Z,99719.91
2023-10-26T06:38:30.486Z,99714.56
2023-10-26T06:40:57.020Z,99714.78
2023-10-26T06:43:26.924Z,99709.53
2023-10-26T06:45:53.467Z,99717.28
2023-10-26T06:48:20.666Z,99711.94
2023-10-26T06:50:50.313Z,99717.81
2023-10-26T06:53:16.844Z,99715.19
2023-10-26T06:55:43.950Z,99710.78
2023-10-26T06:58:10.381Z,99711.50
2023-10-26T07:00:36.865Z,99714.94
2023-10-26T07:03:04.125Z,99717.69
2023-10-26T07:05:30.764Z,99708.88
2023-10-26T07:08:00.623Z,99710.78
2023-10-26T07:10:27.574Z,99710.88
2023-10-26T07:12:54.039Z,99707.53
2023-10-26T07:15:20.564Z,99706.47
2023-10-26T07:17:47.148Z,99710.78
2023-10-26T07:20:16.411Z,99707.19
2023-10-26T07:22:46.278Z,99715.28
2023-10-26T07:25:12.830Z,99711.81
2023-10-26T07:27:39.992Z,99702.41
2023-10-26T07:30:07.562Z,99709.31
2023-10-26T07:32:34.058Z,99711.09
2023-10-26T07:35:02.378Z,99707.53
2023-10-26T07:37:29.382Z,99711.72
2023-10-26T07:40:25.682Z,99702.16
2023-10-26T07:42:42.217Z,99710.97
2023-10-26T07:45:08.997Z,99704.69
2023-10-26T07:47:35.505Z,99709.59
2023-10-26T07:50:02.468Z,99705.41
2023-10-26T07:52:28.918Z,99709.00
2023-10-26T07:54:55.377Z,99703.00
2023-10-26T07:57:21.870Z,99713.47
2023-10-26T07:59:48.314Z,99717.06
2023-10-26T08:02:14.989Z,99717.91
2023-10-26T08:04:41.650Z,99722.22
2023-10-26T08:07:09.335Z,99733.03
2023-10-26T08:09:35.793Z,99731.81
2023-10-26T08:12:02.570Z,99728.34
2023-10-26T08:16:30.932Z,99731.59
2023-10-26T08:17:18.304Z,99726.13
2023-10-26T08:19:44.804Z,99727.56
2023-10-26T08:22:11.772Z,99721.03
2023-10-26T08:24:38.740Z,99728.59
2023-10-26T08:27:05.288Z,99732.88
2023-10-26T08:29:32.700Z,99724.06
2023-10-26T08:31:59.516Z,99733.59
2023-10-26T08:34:27.502Z,99743.47
2023-10-26T08:37:11.495Z,99743.47
2023-10-26T08:39:40.078Z,99746.84
2023-10-26T08:42:06.686Z,99747.44
2023-10-26T08:44:33.435Z,99753.63
2023-10-26T08:47:04.009Z,99758.28
2023-10-26T08:49:31.708Z,99757.66
2023-10-26T08:51:59.215Z,99757.31
2023-10-26T08:54:27.344Z,99752.56
2023-10-26T08:56:54.286Z,99750.56
2023-10-26T08:59:22.434Z,99758.44
2023-10-26T09:01:49.391Z,99762.63
2023-10-26T09:04:16.895Z,99773.00
2023-10-26T09:06:47.355Z,99771.09
2023-10-26T09:09:17.286Z,99769.22
2023-10-26T09:11:47.891Z,99767.28
2023-10-26T09:14:21.841Z,99761.06
2023-10-26T09:16:49.784Z,99759.16
2023-10-26T09:19:18.917Z,99754.16
2023-10-26T09:21:58.867Z,99750.78
2023-10-26T09:24:27.786Z,99756.25
2023-10-26T09:26:55.469Z,99751.97
2023-10-26T09:29:22.688Z,99746.59
2023-10-26T09:31:56.050Z,99752.44
2023-10-26T09:34:26.190Z,99754.16
2023-10-26T09:37:05.761Z,99753.78
2023-10-26T09:39:37.774Z,99746.03
2023-10-26T09:42:07.770Z,99748.31
2023-10-26T09:44:34.909Z,99748.94
2023-10-26T09:47:01.630Z,99753.00
2023-10-26T09:49:28.489Z,99754.22
2023-10-26T09:51:55.311Z,99742.44
2023-10-26T09:54:25.584Z,99748.06
2023-10-26T09:57:02.698Z,99734.34
2023-10-26T09:59:29.878Z,99719.69
2023-10-26T10:01:56.483Z,99718.63
2023-10-26T10:04:38.908Z,99726.78
2023-10-26T10:07:06.236Z,99726.53
2023-10-26T10:09:33.376Z,99730.09
2023-10-26T10:12:25.834Z,99729.75
2023-10-26T10:15:15.566Z,99732.16
2023-10-26T10:17:45.309Z,99728.31
2023-10-26T10:20:14.788Z,99717.47
2023-10-26T10:22:41.443Z,99717.94
2023-10-26T10:25:11.512Z,99714.00
2023-10-26T10:27:39.078Z,99717.72
2023-10-26T10:30:09.098Z,99704.34
2023-10-26T10:32:44.694Z,99697.22
2023-10-26T10:35:23.763Z,99690.63
2023-10-26T10:38:15.314Z,99685.34
2023-10-26T10:41:09.584Z,99700.56
2023-10-26T10:43:46.780Z,99694.91
2023-10-26T10:46:15.943Z,99693.84
2023-10-26T10:49:05.607Z,99687.16
2023-10-26T10:51:39.618Z,99686.06
2023-10-26T10:54:27.055Z,99680.22
2023-10-26T10:56:59.057Z,99677.84
2023-10-26T10:59:27.094Z,99681.53
2023-10-26T11:02:15.660Z,99679.88
2023-10-26T11:04:59.521Z,99669.81
2023-10-26T11:07:27.473Z,99664.56
2023-10-26T11:09:58.381Z,99679.13
2023-10-26T11:12:25.132Z,99679.66
2023-10-26T11:14:53.776Z,99680.09
2023-10-26T11:17:21.140Z,99673.41
2023-10-26T11:19:48.660Z,99676.75
2023-10-26T11:22:16.228Z,99675.78
2023-10-26T11:24:43.955Z,99677.69
2023-10-26T11:27:11.493Z,99678.66
2023-10-26T11:29:38.933Z,99677.25
2023-10-26T11:32:26.424Z,99678.19
2023-10-26T11:35:07.150Z,99673.88
2023-10-26T11:37:38.380Z,99661.69
2023-10-26T11:40:06.196Z,99657.28
2023-10-26T11:42:47.692Z,99655.38
2023-10-26T11:45:18.664Z,99653.69
2023-10-26T11:47:50.070Z,99657.41
2023-10-26T11:50:28.070Z,99663.38
2023-10-26T11:52:56.397Z,99664.81
2023-10-26T11:55:24.029Z,99665.53
2023-10-26T11:57:51.658Z,99669.59
2023-10-26T12:00:20.379Z,99670.03
2023-10-26T12:02:46.937Z,99671.72
2023-10-26T12:05:19.609Z,99668.97
2023-10-26T12:07:47.800Z,99664.22
2023-10-26T12:10:16.386Z,99665.16
2023-10-26T12:12:42.902Z,99660.75
2023-10-26T12:15:09.961Z,99663.81
2023-10-26T12:17:36.804Z,99669.78
2023-10-26T12:20:05.831Z,99664.44
2023-10-26T12:22:32.644Z,99658.34
2023-10-26T12:24:59.168Z,99661.44
2023-10-26T12:27:25.980Z,99666.59
2023-10-26T12:29:52.433Z,99664.09
2023-10-26T12:32:20.891Z,99657.03
2023-10-26T12:34:47.319Z,99648.66
2023-10-26T12:37:13.739Z,99641.03
2023-10-26T12:39:40.174Z,99644.88
2023-10-26T12:42:06.637Z,99651.53
2023-10-26T12:44:33.171Z,99642.44
2023-10-26T12:46:59.705Z,99645.41
2023-10-26T12:49:26.240Z,99640.03
2023-10-26T12:51:52.851Z,99637.66
2023-10-26T12:54:19.443Z,99642.66
2023-10-26T12:56:45.998Z,99640.25
2023-10-26T12:59:12.392Z,99641.69
2023-10-26T13:01:39.136Z,99637.00
2023-10-26T13:04:06.032Z,99637.59
2023-10-26T13:06:37.262Z,99627.09
2023-10-26T13:09:05.439Z,99630.28
2023-10-26T13:11:32.783Z,99629.31
2023-10-26T13:13:59.339Z,99618.53
2023-10-26T13:16:26.032Z,99613.28
2023-10-26T13:18:55.344Z,99599.19
2023-10-26T13:21:21.774Z,99598.09
2023-10-26T13:23:48.215Z,99591.88
2023-10-26T13:26:14.646Z,99588.41
2023-10-26T13:28:41.061Z,99591.88
2023-10-26T13:31:08.068Z,99590.91
2023-10-26T13:33:36.050Z,99595.69
2023-10-26T13:36:03.200Z,99598.75
2023-10-26T13:38:29.668Z,99599.72
2023-10-26T13:40:56.650Z,99589.44
2023-10-26T13:43:23.046Z,99589.31
2023-10-26T13:45:49.502Z,99587.53
2023-10-26T13:48:16.273Z,99586.69
2023-10-26T13:50:44.777Z,99582.53
2023-10-26T13:53:13.613Z,99586.47
2023-10-26T13:55:40.022Z,99590.91
2023-10-26T13:58:06.763Z,99589.25
2023-10-26T14:00:37.302Z,99590.34
2023-10-26T14:03:04.700Z,99596.44
2023-10-26T14:05:32.293Z,99592.97
2023-10-26T14:07:59.155Z,99599.28
2023-10-26T14:10:26.359Z,99591.41
2023-10-26T14:12:52.991Z,99586.97
2023-10-26T14:15:19.458Z,99595.00
2023-10-26T14:17:45.982Z,99590.56
2023-10-26T14:20:12.483Z,99592.13
2023-10-26T14:22:38.897Z,99586.75
2023-10-26T14:25:05.737Z,99589.81
2023-10-26T14:27:32.601Z,99585.16
2023-10-26T14:29:59.004Z,99578.66
2023-10-26T14:32:25.462Z,99582.84
2023-10-26T14:34:51.863Z,99574.22
2023-10-26T14:37:18.221Z,99579.25
2023-10-26T14:39:45.985Z,99572.31
2023-10-26T14:42:13.514Z,99568.97
2023-10-26T14:44:40.466Z,99566.47
2023-10-26T14:47:06.965Z,99568.28
2023-10-26T14:49:33.996Z,99564.09
2023-10-26T14:52:01.136Z,99552.97
2023-10-26T14:54:27.711Z,99548.69
2023-10-26T14:56:54.123Z,99550.75
2023-10-26T14:59:20.771Z,99543.22
2023-10-26T15:01:47.407Z,99540.84
2023-10-26T15:04:13.980Z,99536.81
2023-10-26T15:06:40.387Z,99534.69
2023-10-26T15:09:07.150Z,99535.66
2023-10-26T15:11:55.589Z,99540.09
2023-10-26T15:14:23.007Z,99530.63
2023-10-26T15:16:49.918Z,99536.03
2023-10-26T15:19:16.400Z,99536.28
2023-10-26T15:21:42.810Z,99541.78
2023-10-26T15:24:09.416Z,99539.28
2023-10-26T15:26:35.893Z,99537.75
2023-10-26T15:29:02.572Z,99534.66
2023-10-26T15:31:29.430Z,99533.59
2023-10-26T15:33:58.032Z,99530.94
2023-10-26T15:36:26.008Z,99530.94
2023-10-26T15:38:54.931Z,99532.63
2023-10-26T15:41:21.345Z,99529.28
2023-10-26T15:43:47.763Z,99528.56
2023-10-26T15:46:14.746Z,99526.75
2023-10-26T15:49:30.960Z,99528.56
2023-10-26T15:51:27.731Z,99524.38
2023-10-26T15:53:54.092Z,99521.63
2023-10-26T15:56:20.545Z,99514.84
2023-10-26T15:58:47.716Z,99513.03
2023-10-26T16:01:14.238Z,99517.47
2023-10-26T16:03:40.727Z,99514.97
2023-10-26T16:06:11.121Z,99517.00
2023-10-26T16:08:38.772Z,99510.91
2023-10-26T16:11:09.385Z,99520.72
2023-10-26T16:13:35.840Z,99512.97
2023-10-26T16:16:03.378Z,99510.47
2023-10-26T16:18:29.872Z,99514.63
2023-10-26T16:20:56.320Z,99508.53
2023-10-26T16:23:24.057Z,99516.56
2023-10-26T16:25:50.592Z,99523.59
2023-10-26T16:28:18.411Z,99521.81
2023-10-26T16:30:45.710Z,99522.66
2023-10-26T16:33:13.518Z,99524.44
2023-10-26T16:35:41.504Z,99523.59
2023-10-26T16:38:08.131Z,99522.78
2023-10-26T16:40:34.811Z,99537.72
2023-10-26T16:43:02.268Z,99525.41
2023-10-26T16:45:29.401Z,99521.09
2023-10-26T16:47:56.457Z,99517.75
2023-10-26T16:50:23.500Z,99517.75
2023-10-26T16:52:50.294Z,99519.53
2023-10-26T16:55:16.817Z,99526.47
2023-10-26T16:57:43.364Z,99528.25
2023-10-26T17:00:11.409Z,99522.91
2023-10-26T17:02:38.318Z,99528.16
2023-10-26T17:05:06.162Z,99529.91
2023-10-26T17:07:35.170Z,99532.56
2023-10-26T17:10:02.126Z,99538.91
2023-10-26T17:12:28.615Z,99545.81
2023-10-26T17:14:56.501Z,99544.38
2023-10-26T17:17:26.632Z,99549.63
2023-10-26T17:19:53.867Z,99545.22
2023-10-26T17:22:20.276Z,99540.94
2023-10-26T17:24:47.870Z,99539.84
2023-10-26T17:27:14.578Z,99535.53
2023-10-26T17:29:41.370Z,99531.94
2023-10-26T17:32:07.845Z,99531.94
2023-10-26T17:34:34.248Z,99536.38
2023-10-26T17:37:01.275Z,99530.16
2023-10-26T17:39:29.075Z,99530.28
2023-10-26T17:41:55.607Z,99527.78
2023-10-26T17:44:22.091Z,99534.69
2023-10-26T17:46:48.634Z,99534.97
2023-10-26T17:49:15.191Z,99539.34
2023-10-26T17:51:41.633Z,99537.47
2023-10-26T17:54:08.109Z,99530.53
2023-10-26T17:56:35.381Z,99534.09
2023-10-26T17:59:01.966Z,99530.53
2023-10-26T18:01:29.488Z,99526.13
2023-10-26T18:03:56.145Z,99528.84
2023-10-26T18:06:23.542Z,99532.22
2023-10-26T18:08:53.084Z,99530.63
2023-10-26T18:11:19.450Z,99528.00
2023-10-26T18:13:45.943Z,99528.00
2023-10-26T18:16:13.497Z,99515.00
2023-10-26T18:18:40.160Z,99515.97
2023-10-26T18:21:08.649Z,99501.03
2023-10-26T18:23:36.242Z,99506.41
2023-10-26T18:26:05.370Z,99496.03
2023-10-26T18:28:39.467Z,99487.31
2023-10-26T18:31:09.798Z,99486.72
2023-10-26T18:33:37.015Z,99482.28
2023-10-26T18:36:04.780Z,99480.75
2023-10-26T18:38:32.398Z,99486.13
2023-10-26T18:40:59.939Z,99479.44
2023-10-26T18:43:26.600Z,99488.28
2023-10-26T18:46:01.595Z,99490.91
2023-10-26T18:48:31.166Z,99489.13
2023-10-26T18:50:57.858Z,99494.28
2023-10-26T18:53:24.684Z,99485.56
2023-10-26T18:55:51.579Z,99494.97
2023-10-26T18:58:19.148Z,99494.97
2023-10-26T19:00:46.976Z,99492.22
2023-10-26T19:03:16.858Z,99492.22
2023-10-26T19:05:44.252Z,99496.78
2023-10-26T19:08:11.449Z,99489.72
2023-10-26T19:10:39.138Z,99496.66
2023-10-26T19:13:06.978Z,99502.59
2023-10-26T19:15:34.411Z,99493.88
2023-10-26T19:18:04.114Z,99486.00
2023-10-26T19:20:33.189Z,99494.72
2023-10-26T19:23:00.450Z,99483.25
2023-10-26T19:25:28.827Z,99488.50
2023-10-26T19:27:56.558Z,99486.13
2023-10-26T19:30:26.341Z,99493.19
2023-10-26T19:32:58.618Z,99487.09
2023-10-26T19:35:26.264Z,99490.44
2023-10-26T19:37:55.496Z,99482.53
2023-10-26T19:40:22.506Z,99473.84
2023-10-26T19:42:49.252Z,99485.19
2023-10-26T19:45:15.773Z,99490.31
2023-10-26T19:47:42.340Z,99491.13
2023-10-26T19:50:09.957Z,99489.34
2023-10-26T19:52:37.034Z,99477.28
2023-10-26T19:55:04.636Z,99475.38
2023-10-26T19:57:31.526Z,99475.25
2023-10-26T19:59:57.933Z,99468.44
2023-10-26T20:02:24.492Z,99473.69
2023-10-26T20:04:50.877Z,99476.34
2023-10-26T20:07:17.409Z,99479.78
2023-10-26T20:09:44.042Z,99475.38
2023-10-26T20:12:10.688Z,99475.38
2023-10-26T20:14:37.133Z,99478.81
2023-10-26T20:17:03.719Z,99473.69
2023-10-26T20:19:30.793Z,99478.25
2023-10-26T20:21:57.820Z,99485.31
2023-10-26T20:24:26.938Z,99492.22
2023-10-26T20:26:54.728Z,99483.63
2023-10-26T20:29:21.149Z,99481.97
2023-10-26T20:31:47.624Z,99469.66
2023-10-26T20:34:19.891Z,99468.84
2023-10-26T20:36:47.465Z,99460.97
2023-10-26T20:39:14.135Z,99455.09
2023-10-26T20:41:44.683Z,99449.16
2023-10-26T20:44:13.307Z,99456.31
2023-10-26T20:46:39.849Z,99452.59
2023-10-26T20:49:06.439Z,99458.81
2023-10-26T20:51:34.503Z,99452.47
2023-10-26T20:54:02.040Z,99442.78
2023-10-26T20:56:28.402Z,99452.34
2023-10-26T20:58:54.875Z,99442.66
2023-10-26T21:01:21.332Z,99445.41
2023-10-26T21:03:47.775Z,99439.34
2023-10-26T21:06:15.091Z,99445.56
2023-10-26T21:08:43.865Z,99447.09
2023-10-26T21:11:18.200Z,99447.22
2023-10-26T21:13:45.072Z,99440.16
2023-10-26T21:16:11.785Z,99437.41
2023-10-26T21:18:38.399Z,99433.94
2023-10-26T21:21:08.417Z,99429.53
2023-10-26T21:23:36.409Z,99425.38
2023-10-26T21:26:12.953Z,99427.16
2023-10-26T21:28:42.520Z,99416.66
2023-10-26T21:31:08.973Z,99413.47
2023-10-26T21:33:35.538Z,99407.47
2023-10-26T21:36:05.382Z,99406.63
2023-10-26T21:38:31.829Z,99406.63
2023-10-26T21:41:03.233Z,99409.25
2023-10-26T21:43:30.941Z,99409.16
2023-10-26T21:45:57.577Z,99395.31
2023-10-26T21:48:24.174Z,99401.50
2023-10-26T21:50:50.718Z,99404.28
2023-10-26T21:53:18.113Z,99393.91
2023-10-26T21:55:44.618Z,99394.03
2023-10-26T21:58:11.456Z,99394.03
2023-10-26T22:00:38.047Z,99396.53
2023-10-26T22:03:05.805Z,99397.34
2023-10-26T22:05:32.589Z,99396.53
2023-10-26T22:07:59.607Z,99387.69
2023-10-26T22:10:26.073Z,99398.06
2023-10-26T22:12:53.176Z,99397.09
2023-10-26T22:15:19.745Z,99387.41
2023-10-26T22:17:46.341Z,99392.56
2023-10-26T22:20:12.841Z,99394.25
2023-10-26T22:22:39.571Z,99387.19
2023-10-26T22:25:07.488Z,99393.41
2023-10-26T22:27:34.828Z,99385.53
2023-10-26T22:30:01.370Z,99389.94
2023-10-26T22:32:27.856Z,99388.97
2023-10-26T22:34:54.396Z,99388.25
2023-10-26T22:37:20.866Z,99391.84
2023-10-26T22:39:48.218Z,99385.75
2023-10-26T22:42:15.659Z,99383.84
2023-10-26T22:44:42.594Z,99375.94
2023-10-26T22:47:09.111Z,99369.75
2023-10-26T22:49:35.625Z,99368.94
2023-10-26T22:52:02.112Z,99372.50
2023-10-26T22:54:28.599Z,99374.19
2023-10-26T22:56:55.147Z,99369.75
2023-10-26T22:59:21.856Z,99358.44
2023-10-26T23:01:48.749Z,99354.09
2023-10-26T23:04:15.676Z,99349.81
2023-10-26T23:06:42.384Z,99356.03
2023-10-26T23:09:10.066Z,99353.53
2023-10-26T23:11:36.572Z,99342.34
2023-10-26T23:14:03.167Z,99345.91
2023-10-26T23:16:29.995Z,99351.28
2023-10-26T23:18:56.969Z,99354.03
2023-10-26T23:21:23.456Z,99346.97
2023-10-26T23:23:49.871Z,99340.91
2023-10-26T23:26:16.480Z,99335.78
2023-10-26T23:28:42.950Z,99333.28
2023-10-26T23:31:12.654Z,99329.00
2023-10-26T23:33:39.316Z,99327.31
2023-10-26T23:36:12.985Z,99327.47
2023-10-26T23:38:39.985Z,99320.50
2023-10-26T23:41:07.348Z,99331.75
2023-10-26T23:43:33.905Z,99322.06
2023-10-26T23:46:00.503Z,99320.28
2023-10-26T23:48:27.055Z,99326.50
2023-10-26T23:50:53.661Z,99320.50
2023-10-26T23:53:20.827Z,99320.50
2023-10-26T23:55:48.914Z,99315.41
2023-10-26T23:58:15.647Z,99318.28
